Time;durP1;ratioP1;P1;durP2;ratioP2;P2;SDS_P1;SDS_P2;PMS_P1;PMS_P2;Temp;Humidity;BMP_temperature;BMP_pressure;BME280_temperature;BME280_humidity;BME280_pressure;Samples;Min_cycle;Max_cycle;Signal;HPM_P1;HPM_P2
2022/01/04 00:02:14;;;;;;;1.38;0.60;;;21.50;41.20;;;;;;5034364;28;20035;-52
2022/01/04 00:04:39;;;;;;;1.63;0.75;;;21.50;41.80;;;;;;5054399;28;20053;-52
2022/01/04 00:07:05;;;;;;;1.58;0.80;;;21.50;41.20;;;;;;5054404;28;20094;-53
2022/01/04 00:09:33;;;;;;;1.85;1.00;;;21.50;41.20;;;;;;5054368;28;20083;-52
2022/01/04 00:13:21;;;;;;;1.20;0.70;;;21.50;41.30;;;;;;5054127;28;20051;-53
2022/01/04 00:14:45;;;;;;;0.98;0.70;;;21.40;41.30;;;;;;5053278;28;20079;-53
2022/01/04 00:17:10;;;;;;;1.77;0.68;;;21.40;41.30;;;;;;5053792;28;20037;-49
2022/01/04 00:19:36;;;;;;;1.00;0.70;;;21.40;41.30;;;;;;5053897;28;20024;-55
2022/01/04 00:22:04;;;;;;;1.20;0.73;;;21.50;41.30;;;;;;5053778;28;20451;-57
2022/01/04 00:24:30;;;;;;;1.02;0.70;;;21.40;41.30;;;;;;5053684;28;20058;-54
2022/01/04 00:26:55;;;;;;;2.13;0.85;;;21.40;41.30;;;;;;5053600;28;20348;-48
2022/01/04 00:29:21;;;;;;;1.45;1.00;;;21.40;41.30;;;;;;5036020;28;20033;-55
2022/01/04 00:31:47;;;;;;;1.05;0.70;;;21.40;41.30;;;;;;5036589;28;20067;-53
2022/01/04 00:34:13;;;;;;;0.98;0.60;;;21.40;41.30;;;;;;5053894;28;20032;-51
2022/01/04 00:36:39;;;;;;;1.08;0.60;;;21.40;41.30;;;;;;5052041;28;20033;-50
2022/01/04 00:39:04;;;;;;;1.33;0.68;;;21.40;41.30;;;;;;5039852;28;20313;-55
2022/01/04 00:41:30;;;;;;;2.05;0.70;;;21.40;41.30;;;;;;5043433;28;20032;-55
2022/01/04 00:43:56;;;;;;;1.58;0.88;;;21.40;41.30;;;;;;5037483;28;20071;-52
2022/01/04 00:46:22;;;;;;;1.88;0.82;;;21.40;41.30;;;;;;5034921;28;20120;-55
2022/01/04 00:51:32;;;;;;;1.13;0.50;;;21.40;41.40;;;;;;5038630;28;20488;-50
2022/01/04 00:53:58;;;;;;;1.95;0.88;;;21.30;41.30;;;;;;5047660;28;20100;-52
2022/01/04 00:56:24;;;;;;;1.30;0.63;;;21.30;41.30;;;;;;5035902;28;20029;-52
2022/01/04 00:58:49;;;;;;;1.65;0.77;;;21.30;41.30;;;;;;5045872;28;20348;-54
2022/01/04 01:01:15;;;;;;;1.38;0.70;;;21.30;41.30;;;;;;5053293;28;20398;-52
2022/01/04 01:03:41;;;;;;;1.27;0.75;;;21.30;41.30;;;;;;5053470;28;20021;-54
2022/01/04 01:06:07;;;;;;;2.53;1.05;;;21.30;41.30;;;;;;5053888;28;20039;-57
2022/01/04 01:08:33;;;;;;;1.10;0.80;;;21.30;41.30;;;;;;5052956;28;20037;-51
2022/01/04 01:10:59;;;;;;;1.25;0.60;;;21.30;41.30;;;;;;5054120;28;20048;-53
2022/01/04 01:13:25;;;;;;;1.73;0.75;;;21.30;41.30;;;;;;5051769;28;20013;-55
2022/01/04 01:15:50;;;;;;;1.60;0.80;;;21.30;41.30;;;;;;5053446;28;20021;-50
2022/01/04 01:18:18;;;;;;;1.23;0.68;;;21.30;41.30;;;;;;5053021;28;20335;-49
2022/01/04 01:20:50;;;;;;;1.00;0.73;;;21.30;41.30;;;;;;5053359;28;20116;-52
2022/01/04 01:23:16;;;;;;;1.48;0.80;;;21.30;41.30;;;;;;5052984;28;20436;-51
2022/01/04 01:25:42;;;;;;;1.77;0.70;;;21.30;41.30;;;;;;5053205;28;20020;-55
2022/01/04 01:28:08;;;;;;;1.30;0.60;;;21.30;41.30;;;;;;5053084;28;20432;-53
2022/01/04 01:30:37;;;;;;;1.98;0.93;;;21.30;41.30;;;;;;5053180;28;20095;-49
2022/01/04 01:33:03;;;;;;;1.20;0.55;;;21.20;41.20;;;;;;5052708;28;20040;-50
2022/01/04 01:35:30;;;;;;;1.80;0.80;;;21.20;41.20;;;;;;5053590;28;20055;-53
2022/01/04 01:37:58;;;;;;;1.98;0.70;;;21.20;41.30;;;;;;5054773;28;20029;-49
2022/01/04 01:40:24;;;;;;;1.02;0.75;;;21.20;41.30;;;;;;5056908;28;20059;-54
2022/01/04 01:42:50;;;;;;;1.25;0.70;;;21.20;41.30;;;;;;5056861;28;20587;-53
2022/01/04 01:45:16;;;;;;;1.17;0.70;;;21.20;41.30;;;;;;5057538;28;20056;-52
2022/01/04 01:47:50;;;;;;;0.85;0.70;;;21.20;41.30;;;;;;5055687;28;20078;-52
2022/01/04 01:50:17;;;;;;;1.27;0.60;;;21.20;41.30;;;;;;5056281;28;20021;-51
2022/01/04 01:52:45;;;;;;;2.80;0.90;;;21.20;41.30;;;;;;5057015;28;20025;-56
2022/01/04 01:55:12;;;;;;;1.50;0.75;;;21.20;41.30;;;;;;5055852;28;20138;-50
2022/01/04 01:57:39;;;;;;;1.73;0.68;;;21.20;41.30;;;;;;5056457;28;20041;-51
2022/01/04 02:00:07;;;;;;;0.90;0.52;;;21.20;41.30;;;;;;5056568;28;20021;-51
2022/01/04 02:02:33;;;;;;;1.25;0.60;;;21.20;41.30;;;;;;5056829;28;20437;-53
2022/01/04 02:04:59;;;;;;;2.03;0.90;;;21.20;41.30;;;;;;5055973;28;20035;-48
2022/01/04 02:07:26;;;;;;;1.00;0.75;;;21.20;41.30;;;;;;5056400;28;20099;-52
2022/01/04 02:10:03;;;;;;;1.35;0.70;;;21.20;41.30;;;;;;5056155;28;20037;-55
2022/01/04 02:12:40;;;;;;;1.00;0.73;;;21.20;41.30;;;;;;5055718;28;20032;-48
2022/01/04 02:15:09;;;;;;;1.80;0.73;;;21.20;41.30;;;;;;5054110;28;20025;-56
2022/01/04 02:17:35;;;;;;;1.00;0.80;;;21.20;41.30;;;;;;5056703;28;20439;-50
2022/01/04 02:20:01;;;;;;;1.98;0.82;;;21.20;41.30;;;;;;5038954;28;20025;-52
2022/01/04 02:22:28;;;;;;;1.10;0.68;;;21.10;41.20;;;;;;5056603;28;20446;-50
2022/01/04 02:24:54;;;;;;;1.80;1.05;;;21.10;41.20;;;;;;5055813;28;20036;-54
2022/01/04 02:27:21;;;;;;;1.73;0.90;;;21.10;41.20;;;;;;5038594;28;20027;-49
2022/01/04 02:29:47;;;;;;;1.45;0.68;;;21.10;41.20;;;;;;5055895;28;20032;-50
2022/01/04 02:32:14;;;;;;;0.70;0.60;;;21.10;41.80;;;;;;5055458;28;20029;-52
2022/01/04 02:34:46;;;;;;;1.90;0.60;;;21.10;41.20;;;;;;5057650;28;20024;-48
2022/01/04 02:37:12;;;;;;;0.80;0.60;;;21.10;41.20;;;;;;5056773;28;20060;-50
2022/01/04 02:39:38;;;;;;;1.90;0.70;;;21.10;41.20;;;;;;5056988;28;20052;-53
2022/01/04 02:42:05;;;;;;;0.80;0.45;;;21.10;41.20;;;;;;5057010;28;20036;-48
2022/01/04 02:44:32;;;;;;;1.40;0.60;;;21.10;41.20;;;;;;5057235;28;20020;-49
2022/01/04 02:46:58;;;;;;;1.65;0.60;;;21.10;41.30;;;;;;5057306;28;20025;-54
2022/01/04 02:49:24;;;;;;;1.38;0.65;;;21.10;41.20;;;;;;5057056;28;20036;-54
2022/01/04 02:51:50;;;;;;;1.35;0.77;;;21.10;41.30;;;;;;5056397;28;20021;-54
2022/01/04 02:54:16;;;;;;;0.75;0.50;;;21.00;41.80;;;;;;5056934;28;20103;-51
2022/01/04 02:56:42;;;;;;;1.58;0.88;;;21.10;41.30;;;;;;5056649;28;20040;-55
2022/01/04 02:59:07;;;;;;;2.17;0.57;;;21.10;41.30;;;;;;5056574;28;20053;-51
2022/01/04 03:01:33;;;;;;;0.60;0.60;;;21.10;41.30;;;;;;5056849;28;20033;-51
2022/01/04 03:03:59;;;;;;;1.10;0.50;;;21.00;41.20;;;;;;5057073;28;20029;-51
2022/01/04 03:06:25;;;;;;;1.58;0.77;;;21.00;41.20;;;;;;5056564;28;20348;-53
2022/01/04 03:08:51;;;;;;;0.90;0.55;;;21.00;41.20;;;;;;5055827;28;20408;-52
2022/01/04 03:11:17;;;;;;;0.82;0.60;;;21.00;41.20;;;;;;5056543;28;20043;-51
2022/01/04 03:13:43;;;;;;;1.13;0.70;;;21.00;41.20;;;;;;5055730;28;20399;-53
2022/01/04 03:16:09;;;;;;;1.23;0.60;;;21.00;41.20;;;;;;5056425;28;20052;-55
2022/01/04 03:18:38;;;;;;;1.30;0.70;;;21.00;41.20;;;;;;5056199;28;20067;-51
2022/01/04 03:21:04;;;;;;;1.55;0.70;;;21.00;41.20;;;;;;5055463;28;20467;-56
2022/01/04 03:23:29;;;;;;;1.05;0.52;;;21.00;41.20;;;;;;5056532;28;20024;-48
2022/01/04 03:25:55;;;;;;;0.63;0.57;;;21.00;41.20;;;;;;5056585;28;20025;-54
2022/01/04 03:28:23;;;;;;;1.67;0.80;;;21.00;41.20;;;;;;5045086;28;20116;-49
2022/01/04 03:30:49;;;;;;;0.75;0.50;;;21.00;41.20;;;;;;5056537;28;20448;-51
2022/01/04 03:33:15;;;;;;;0.65;0.52;;;21.00;41.20;;;;;;5056516;28;20064;-52
2022/01/04 03:35:41;;;;;;;0.95;0.60;;;21.00;41.20;;;;;;5056149;28;20055;-48
2022/01/04 03:38:06;;;;;;;0.98;0.60;;;21.00;41.20;;;;;;5056156;28;20040;-49
2022/01/04 03:40:32;;;;;;;1.13;0.50;;;21.00;41.20;;;;;;5056311;28;20017;-52
2022/01/04 03:42:58;;;;;;;1.85;0.80;;;20.90;41.10;;;;;;5056584;28;20409;-51
2022/01/04 03:45:24;;;;;;;1.17;0.70;;;20.90;41.10;;;;;;5056144;28;20073;-52
2022/01/04 03:47:49;;;;;;;1.15;0.55;;;21.00;41.20;;;;;;5056020;28;20041;-54
2022/01/04 03:50:15;;;;;;;1.20;0.60;;;20.90;41.10;;;;;;5055476;28;20111;-55
2022/01/04 03:52:41;;;;;;;1.40;0.70;;;20.90;41.20;;;;;;5056416;28;20021;-50
2022/01/04 03:55:08;;;;;;;1.13;0.60;;;20.90;41.10;;;;;;5056009;28;20045;-55
2022/01/04 03:57:35;;;;;;;1.52;0.52;;;20.90;41.10;;;;;;5055735;28;20047;-55
2022/01/04 04:00:01;;;;;;;1.30;0.60;;;20.90;41.10;;;;;;5039876;28;20060;-51
2022/01/04 04:02:27;;;;;;;1.10;0.60;;;20.90;41.10;;;;;;5056252;28;20129;-50
2022/01/04 04:04:52;;;;;;;1.05;0.50;;;20.90;41.10;;;;;;5056086;28;20495;-55
2022/01/04 04:07:18;;;;;;;1.23;0.65;;;20.90;41.10;;;;;;5054992;28;20039;-53
2022/01/04 04:09:44;;;;;;;1.35;0.52;;;20.90;41.20;;;;;;5055943;28;20035;-55
2022/01/04 04:12:10;;;;;;;1.23;0.65;;;20.90;41.20;;;;;;5055195;28;20037;-50
2022/01/04 04:14:36;;;;;;;0.90;0.68;;;20.90;41.20;;;;;;5038541;28;20021;-54
2022/01/04 04:17:03;;;;;;;1.30;0.80;;;20.90;41.20;;;;;;5031705;28;20344;-50
2022/01/04 04:19:29;;;;;;;0.70;0.50;;;20.90;41.20;;;;;;5055564;28;20114;-52
2022/01/04 04:21:54;;;;;;;2.50;0.70;;;20.90;41.20;;;;;;5055066;28;20435;-54
2022/01/04 04:24:20;;;;;;;1.70;0.80;;;20.90;41.20;;;;;;5055480;28;20461;-53
2022/01/04 04:26:46;;;;;;;1.40;0.80;;;20.90;41.20;;;;;;5037308;28;20040;-54
2022/01/04 04:29:11;;;;;;;1.27;0.63;;;20.90;41.20;;;;;;5055558;28;20029;-54
2022/01/04 04:31:37;;;;;;;1.40;0.60;;;20.90;41.20;;;;;;5054683;28;20025;-51
2022/01/04 04:34:03;;;;;;;0.93;0.60;;;20.80;41.10;;;;;;5056397;28;20021;-52
2022/01/04 04:36:30;;;;;;;1.67;0.80;;;20.90;41.20;;;;;;5054407;28;20030;-53
2022/01/04 04:38:56;;;;;;;1.10;0.70;;;20.80;41.20;;;;;;5055432;28;20052;-55
2022/01/04 04:41:22;;;;;;;0.88;0.80;;;20.80;41.10;;;;;;5036791;28;20368;-48
2022/01/04 04:43:53;;;;;;;0.60;0.50;;;20.80;41.10;;;;;;5055303;28;20024;-51
2022/01/04 04:46:19;;;;;;;1.70;0.63;;;20.80;41.10;;;;;;5054127;28;20432;-54
2022/01/04 04:48:44;;;;;;;0.50;0.50;;;20.80;41.10;;;;;;5055053;28;20100;-50
2022/01/04 04:51:10;;;;;;;1.15;0.68;;;20.80;41.10;;;;;;5054473;28;20035;-49
2022/01/04 04:53:36;;;;;;;1.00;0.70;;;20.80;41.10;;;;;;5055397;28;20075;-50
2022/01/04 04:56:02;;;;;;;1.00;0.73;;;20.80;41.10;;;;;;5054659;28;20444;-53
2022/01/04 04:58:27;;;;;;;1.25;0.70;;;20.80;41.20;;;;;;5054379;28;20041;-53
2022/01/04 05:00:53;;;;;;;1.00;0.60;;;20.80;41.20;;;;;;5055115;28;20115;-52
2022/01/04 05:03:19;;;;;;;0.77;0.50;;;20.80;41.20;;;;;;5054750;28;20428;-54
2022/01/04 05:05:44;;;;;;;1.00;0.68;;;20.80;41.10;;;;;;5054613;28;20025;-51
2022/01/04 05:08:10;;;;;;;1.42;0.90;;;20.80;41.10;;;;;;5054601;28;20036;-55
2022/01/04 05:10:36;;;;;;;0.93;0.60;;;20.80;41.10;;;;;;5054159;28;20040;-52
2022/01/04 05:13:02;;;;;;;0.77;0.57;;;20.70;41.10;;;;;;5052693;28;20051;-51
2022/01/04 05:15:28;;;;;;;1.38;0.60;;;20.80;41.10;;;;;;5054709;28;20021;-50
2022/01/04 05:17:54;;;;;;;1.15;0.80;;;20.70;41.10;;;;;;5053709;28;20132;-46
2022/01/04 05:20:19;;;;;;;0.93;0.52;;;20.70;41.10;;;;;;5054479;28;20021;-49
2022/01/04 05:22:45;;;;;;;0.98;0.70;;;20.80;41.10;;;;;;5053998;28;20181;-56
2022/01/04 05:25:11;;;;;;;0.77;0.70;;;20.80;41.10;;;;;;5055169;28;20028;-53
2022/01/04 05:27:37;;;;;;;0.93;0.55;;;20.70;41.10;;;;;;5054764;28;20021;-49
2022/01/04 05:30:04;;;;;;;0.93;0.52;;;20.70;41.10;;;;;;5054360;28;20024;-52
2022/01/04 05:32:30;;;;;;;0.77;0.70;;;20.70;41.10;;;;;;5054488;28;20025;-48
2022/01/04 05:34:55;;;;;;;0.80;0.63;;;20.70;41.10;;;;;;5054637;28;20021;-55
2022/01/04 05:37:21;;;;;;;0.77;0.60;;;20.80;41.20;;;;;;5054637;28;20040;-54
2022/01/04 05:39:47;;;;;;;0.68;0.45;;;20.70;41.10;;;;;;5053843;28;20025;-49
2022/01/04 05:42:12;;;;;;;1.17;0.70;;;20.70;41.10;;;;;;5053754;28;20032;-52
2022/01/04 05:44:38;;;;;;;1.00;0.60;;;20.70;41.20;;;;;;5036894;28;20033;-55
2022/01/04 05:47:05;;;;;;;3.47;0.93;;;20.70;41.20;;;;;;5054485;28;20032;-53
2022/01/04 05:49:31;;;;;;;1.33;0.88;;;20.70;41.20;;;;;;5053875;28;20035;-49
2022/01/04 05:51:57;;;;;;;1.23;0.50;;;20.70;41.20;;;;;;5053968;28;20029;-53
2022/01/04 05:54:23;;;;;;;1.52;0.85;;;20.70;41.20;;;;;;5054013;28;20105;-55
2022/01/04 05:56:48;;;;;;;1.20;0.60;;;20.70;41.20;;;;;;5053796;28;20028;-47
2022/01/04 05:59:14;;;;;;;0.50;0.50;;;20.70;41.20;;;;;;5053798;28;20367;-51
2022/01/04 06:01:40;;;;;;;1.23;0.88;;;20.70;41.20;;;;;;5053449;28;20432;-53
2022/01/04 06:04:06;;;;;;;1.33;0.70;;;20.70;41.20;;;;;;5054484;28;20414;-51
2022/01/04 06:06:32;;;;;;;1.60;0.70;;;20.70;41.90;;;;;;5054479;28;20028;-52
2022/01/04 06:08:59;;;;;;;1.58;0.88;;;20.60;41.20;;;;;;5053519;28;20053;-48
2022/01/04 06:11:43;;;;;;;1.15;0.65;;;20.60;41.20;;;;;;5053802;28;20424;-54
2022/01/04 06:16:54;;;;;;;;;;;20.60;41.20;;;;;;5054843;28;20460;-51
2022/01/04 06:19:20;;;;;;;1.40;0.70;;;20.60;41.20;;;;;;5053516;28;20012;-49
2022/01/04 06:21:45;;;;;;;0.85;0.60;;;20.60;41.30;;;;;;5054151;28;20040;-50
2022/01/04 06:24:11;;;;;;;0.80;0.77;;;20.60;41.30;;;;;;5056821;28;20064;-56
2022/01/04 06:26:37;;;;;;;1.05;0.63;;;20.60;41.30;;;;;;5057725;28;20029;-49
2022/01/04 06:29:03;;;;;;;1.85;0.77;;;20.60;41.30;;;;;;5057055;28;20328;-50
2022/01/04 06:31:29;;;;;;;1.42;0.70;;;20.60;41.30;;;;;;5057255;28;20032;-51
2022/01/04 06:33:55;;;;;;;3.03;0.80;;;20.60;41.30;;;;;;5056767;28;20028;-51
2022/01/04 06:36:21;;;;;;;1.20;0.75;;;20.60;41.30;;;;;;5057923;28;20025;-52
2022/01/04 06:38:47;;;;;;;1.30;0.80;;;20.60;41.30;;;;;;5056627;28;20033;-51
2022/01/04 06:41:14;;;;;;;0.93;0.80;;;20.60;41.30;;;;;;5039793;28;20025;-53
2022/01/04 06:43:39;;;;;;;1.23;0.80;;;20.60;41.30;;;;;;5056425;28;20429;-50
2022/01/04 06:46:05;;;;;;;0.90;0.80;;;20.60;41.30;;;;;;5040299;28;20039;-53
2022/01/04 06:48:31;;;;;;;1.27;0.90;;;20.60;41.30;;;;;;5057045;28;20490;-51
2022/01/04 06:50:57;;;;;;;1.42;0.70;;;20.60;41.30;;;;;;5057784;28;20029;-49
2022/01/04 06:53:23;;;;;;;1.48;0.70;;;20.60;41.30;;;;;;5056588;28;20360;-54
2022/01/04 06:55:52;;;;;;;1.00;0.75;;;20.50;41.30;;;;;;5056988;28;20124;-56
2022/01/04 06:58:18;;;;;;;1.05;0.55;;;20.50;41.30;;;;;;5057093;28;20338;-51
2022/01/04 07:00:44;;;;;;;1.55;1.02;;;20.50;41.30;;;;;;5057190;28;20021;-56
2022/01/04 07:03:10;;;;;;;1.33;0.60;;;20.60;41.40;;;;;;5056948;28;20048;-52
2022/01/04 07:05:36;;;;;;;1.65;0.93;;;20.50;41.30;;;;;;5056844;28;20044;-54
2022/01/04 07:08:04;;;;;;;1.30;0.93;;;20.50;41.40;;;;;;5057031;28;20020;-48
2022/01/04 07:10:29;;;;;;;1.55;0.98;;;20.60;41.50;;;;;;5056378;28;20025;-49
2022/01/04 07:12:55;;;;;;;1.63;1.00;;;20.50;41.40;;;;;;5052182;28;20356;-51
2022/01/04 07:15:21;;;;;;;1.52;0.82;;;20.50;41.40;;;;;;5049927;28;20493;-55
2022/01/04 07:17:47;;;;;;;1.48;0.80;;;20.50;41.40;;;;;;5056110;28;20029;-54
2022/01/04 07:20:14;;;;;;;0.90;0.70;;;20.50;41.40;;;;;;5055196;28;20094;-53
2022/01/04 07:22:40;;;;;;;0.93;0.80;;;20.50;41.40;;;;;;5056390;28;20044;-50
2022/01/04 07:25:07;;;;;;;1.45;1.00;;;20.50;41.50;;;;;;5055345;28;20036;-55
2022/01/04 07:27:33;;;;;;;0.95;0.85;;;20.50;41.40;;;;;;5056321;28;20021;-47
2022/01/04 07:29:59;;;;;;;2.22;1.25;;;20.50;41.40;;;;;;5056615;28;20040;-51
2022/01/04 07:32:25;;;;;;;1.75;1.00;;;20.50;41.40;;;;;;5056207;28;20024;-53
2022/01/04 07:34:50;;;;;;;1.05;0.77;;;20.50;41.40;;;;;;5055431;28;20040;-52
2022/01/04 07:37:16;;;;;;;1.60;1.00;;;20.50;41.40;;;;;;5056212;28;20459;-52
2022/01/04 07:39:42;;;;;;;1.10;0.82;;;20.50;41.40;;;;;;5053509;28;20432;-57
2022/01/04 07:42:08;;;;;;;1.20;0.95;;;20.50;41.50;;;;;;5055605;28;20108;-52
2022/01/04 07:44:34;;;;;;;2.58;1.13;;;20.50;41.50;;;;;;5055771;28;20135;-52
2022/01/04 07:47:00;;;;;;;1.52;0.90;;;20.50;41.50;;;;;;5056896;28;20444;-53
2022/01/04 07:49:26;;;;;;;1.50;0.98;;;20.50;41.50;;;;;;5056118;28;20029;-51
2022/01/04 07:51:52;;;;;;;1.25;0.98;;;20.60;41.50;;;;;;5055691;28;20028;-52
2022/01/04 07:54:19;;;;;;;1.55;0.95;;;20.70;41.50;;;;;;5054517;28;20041;-58
2022/01/04 07:56:47;;;;;;;1.05;0.90;;;20.80;41.30;;;;;;5055162;28;20016;-54
2022/01/04 07:59:14;;;;;;;1.45;0.80;;;20.90;41.20;;;;;;5052738;28;20052;-50
2022/01/04 08:01:40;;;;;;;1.98;1.00;;;21.00;41.10;;;;;;5055886;28;20029;-53
2022/01/04 08:04:06;;;;;;;1.83;1.00;;;21.10;41.00;;;;;;5055134;28;20075;-48
2022/01/04 08:06:32;;;;;;;1.10;0.90;;;21.20;40.90;;;;;;5055264;28;20102;-50
2022/01/04 08:08:58;;;;;;;1.33;0.80;;;21.30;40.80;;;;;;5054972;28;20470;-54
2022/01/04 08:11:27;;;;;;;1.58;1.05;;;21.40;40.70;;;;;;5055593;28;20029;-54
2022/01/04 08:13:53;;;;;;;1.60;1.05;;;21.40;40.60;;;;;;5055839;28;20029;-57
2022/01/04 08:16:19;;;;;;;1.80;1.08;;;21.50;41.20;;;;;;5055156;28;20033;-52
2022/01/04 08:18:45;;;;;;;1.20;0.85;;;21.60;40.50;;;;;;5055341;28;20037;-48
2022/01/04 08:21:11;;;;;;;1.40;0.98;;;21.70;40.50;;;;;;5054076;28;20456;-52
2022/01/04 08:23:37;;;;;;;1.33;0.80;;;21.70;40.40;;;;;;5055710;28;20097;-50
2022/01/04 08:26:03;;;;;;;1.63;0.80;;;21.80;40.30;;;;;;5055158;28;20115;-48
2022/01/04 08:28:29;;;;;;;1.23;0.90;;;21.90;40.20;;;;;;5055626;28;20036;-53
2022/01/04 08:30:55;;;;;;;1.38;0.95;;;22.00;40.20;;;;;;5055316;28;20423;-51
2022/01/04 08:33:21;;;;;;;1.17;0.80;;;22.00;40.00;;;;;;5054934;28;20109;-52
2022/01/04 08:35:47;;;;;;;1.83;0.98;;;22.10;40.00;;;;;;5055317;28;20025;-50
2022/01/04 08:38:13;;;;;;;2.08;1.30;;;22.20;39.90;;;;;;5054785;28;20033;-55
2022/01/04 08:40:39;;;;;;;1.48;1.10;;;22.20;39.90;;;;;;5053649;28;20037;-53
2022/01/04 08:43:05;;;;;;;2.13;1.15;;;22.30;39.80;;;;;;5054582;28;20032;-54
2022/01/04 08:45:31;;;;;;;1.83;1.20;;;22.30;39.80;;;;;;5049702;28;20032;-53
2022/01/04 08:47:58;;;;;;;0.70;0.70;;;22.40;39.70;;;;;;5053809;28;20025;-55
2022/01/04 08:50:27;;;;;;;2.13;1.30;;;22.40;39.60;;;;;;5053981;28;20040;-58
2022/01/04 08:52:55;;;;;;;1.42;0.90;;;22.50;39.50;;;;;;5054630;28;20029;-52
2022/01/04 08:55:23;;;;;;;1.77;1.00;;;22.50;39.40;;;;;;5054901;28;20436;-53
2022/01/04 08:57:49;;;;;;;2.10;1.00;;;22.60;39.40;;;;;;5054694;28;20033;-55
2022/01/04 09:00:16;;;;;;;2.13;0.80;;;22.60;39.30;;;;;;5055009;28;20064;-54
2022/01/04 09:02:43;;;;;;;1.50;1.00;;;22.70;39.20;;;;;;5054745;28;20454;-54
2022/01/04 09:05:10;;;;;;;1.30;0.90;;;22.70;39.10;;;;;;5037133;28;20442;-49
2022/01/04 09:07:36;;;;;;;1.15;1.02;;;22.70;39.00;;;;;;5055073;28;20432;-53
2022/01/04 09:10:04;;;;;;;1.15;0.82;;;22.80;39.00;;;;;;5054323;28;20048;-58
2022/01/04 09:20:50;;;;;;;1.40;0.82;;;23.00;38.90;;;;;;5054816;28;20032;-52
2022/01/04 09:23:18;;;;;;;1.50;0.90;;;23.00;38.80;;;;;;5054435;28;20032;-54
2022/01/04 09:25:50;;;;;;;1.00;0.90;;;23.10;38.70;;;;;;5054719;28;20501;-57
2022/01/04 09:28:19;;;;;;;1.42;0.90;;;23.10;38.60;;;;;;5054193;28;20035;-55
2022/01/04 09:30:49;;;;;;;1.50;1.00;;;23.10;38.60;;;;;;5053797;28;20662;-52
2022/01/04 09:33:15;;;;;;;0.80;0.80;;;23.10;38.50;;;;;;5054297;28;20124;-49
2022/01/04 09:35:41;;;;;;;1.30;1.00;;;23.20;38.60;;;;;;5054687;28;20432;-53
2022/01/04 09:38:07;;;;;;;1.05;0.90;;;23.20;38.50;;;;;;5054759;28;20372;-52
2022/01/04 09:40:35;;;;;;;1.48;1.00;;;23.20;38.50;;;;;;5054331;28;20104;-53
2022/01/04 09:43:04;;;;;;;1.15;0.90;;;23.20;38.40;;;;;;5054889;28;20067;-49
2022/01/04 09:45:30;;;;;;;1.05;0.93;;;23.20;38.40;;;;;;5054616;28;20102;-49
2022/01/04 09:47:56;;;;;;;1.08;0.98;;;23.20;38.40;;;;;;5054853;28;20412;-51
2022/01/04 09:50:22;;;;;;;1.73;0.95;;;23.20;38.40;;;;;;5054215;28;20364;-48
2022/01/04 09:52:49;;;;;;;3.20;0.93;;;23.20;38.40;;;;;;5053974;28;20085;-50
2022/01/04 09:55:16;;;;;;;1.15;0.80;;;23.20;38.40;;;;;;5053949;28;20040;-53
2022/01/04 09:57:45;;;;;;;1.63;0.82;;;23.20;38.40;;;;;;5055089;28;20037;-52
2022/01/04 10:00:14;;;;;;;0.93;0.80;;;23.10;38.40;;;;;;5057865;28;20056;-56
2022/01/04 10:02:41;;;;;;;1.52;1.08;;;23.20;38.40;;;;;;5058514;28;20451;-57
2022/01/04 10:05:19;;;;;;;1.70;1.10;;;23.10;38.40;;;;;;5058476;28;20033;-53
2022/01/04 10:07:46;;;;;;;1.75;1.10;;;23.10;38.40;;;;;;5057902;28;20021;-55
2022/01/04 10:10:17;;;;;;;1.55;0.90;;;23.00;38.40;;;;;;5058009;28;20029;-53
2022/01/04 10:12:55;;;;;;;0.93;0.80;;;23.00;38.40;;;;;;5055888;28;20029;-59
2022/01/04 10:15:43;;;;;;;2.15;0.77;;;22.90;38.40;;;;;;5055729;28;20101;-57
2022/01/04 10:18:13;;;;;;;0.75;0.70;;;22.90;38.50;;;;;;5049246;28;20090;-56
2022/01/04 10:20:44;;;;;;;0.98;0.70;;;22.90;38.70;;;;;;5055904;28;20029;-52
2022/01/04 10:23:12;;;;;;;0.88;0.80;;;22.80;38.70;;;;;;5056496;28;20075;-54
2022/01/04 10:25:39;;;;;;;0.60;0.50;;;22.80;38.80;;;;;;5055715;28;20035;-53
2022/01/04 10:28:05;;;;;;;2.45;0.57;;;22.80;38.80;;;;;;5056335;28;20387;-49
2022/01/04 10:30:35;;;;;;;2.28;1.08;;;22.80;38.80;;;;;;5056665;28;20041;-57
2022/01/04 10:33:20;;;;;;;0.80;0.47;;;22.80;38.80;;;;;;5019816;28;20356;-57
2022/01/04 10:35:48;;;;;;;5.22;0.63;;;22.80;38.70;;;;;;5036400;28;20403;-57
2022/01/04 10:38:23;;;;;;;1.95;0.70;;;22.80;38.70;;;;;;5056351;28;20068;-56
2022/01/04 10:40:57;;;;;;;0.68;0.63;;;22.80;38.70;;;;;;5053371;28;20048;-57
2022/01/04 10:43:27;;;;;;;2.28;0.60;;;22.70;38.60;;;;;;5055982;28;20077;-57
2022/01/04 10:45:54;;;;;;;0.77;0.60;;;22.70;38.60;;;;;;5055839;28;20025;-58
2022/01/04 10:48:27;;;;;;;1.15;0.60;;;22.70;38.80;;;;;;5055933;28;20025;-58
2022/01/04 10:51:08;;;;;;;1.83;0.95;;;22.70;38.50;;;;;;5056073;28;20021;-59
2022/01/04 10:53:58;;;;;;;1.25;0.90;;;22.70;38.50;;;;;;5055047;28;20450;-59
2022/01/04 10:56:31;;;;;;;2.80;0.50;;;22.70;38.50;;;;;;5041034;28;20130;-54
2022/01/04 10:59:00;;;;;;;1.85;0.80;;;22.60;38.50;;;;;;5055351;28;20051;-56
2022/01/04 11:01:29;;;;;;;1.42;0.60;;;22.60;38.60;;;;;;5056178;28;20021;-52
2022/01/04 11:03:57;;;;;;;0.90;0.70;;;22.60;38.60;;;;;;5054772;28;20353;-50
2022/01/04 11:06:36;;;;;;;1.05;0.60;;;22.60;38.60;;;;;;5055654;28;20035;-56
2022/01/04 11:09:05;;;;;;;1.15;0.80;;;22.60;38.60;;;;;;5053989;28;20029;-55
2022/01/04 11:11:33;;;;;;;0.68;0.68;;;22.60;39.40;;;;;;5055271;28;20025;-55
2022/01/04 11:14:00;;;;;;;1.25;0.63;;;22.50;38.70;;;;;;5055460;28;20305;-56
2022/01/04 11:16:28;;;;;;;1.35;0.63;;;22.50;38.70;;;;;;5055038;28;20087;-58
2022/01/04 11:18:56;;;;;;;0.82;0.57;;;22.50;38.80;;;;;;5055273;28;20037;-55
2022/01/04 11:21:31;;;;;;;1.05;0.80;;;22.50;38.80;;;;;;5053226;28;20340;-52
2022/01/04 11:23:58;;;;;;;1.00;0.75;;;22.50;38.90;;;;;;5053661;28;20344;-52
2022/01/04 11:26:25;;;;;;;1.25;0.80;;;22.40;39.00;;;;;;5053112;28;20033;-54
2022/01/04 11:28:53;;;;;;;1.20;0.70;;;22.40;39.00;;;;;;5037591;28;20316;-60
2022/01/04 11:31:50;;;;;;;3.08;0.90;;;22.50;39.10;;;;;;5054413;28;20443;-59
2022/01/04 11:34:40;;;;;;;1.40;0.80;;;22.50;39.20;;;;;;5054163;28;20036;-53
2022/01/04 11:37:06;;;;;;;2.40;1.15;;;22.50;39.40;;;;;;5054679;28;20028;-60
2022/01/04 11:39:38;;;;;;;1.50;1.00;;;22.50;39.50;;;;;;5055037;28;20040;-59
2022/01/04 11:42:07;;;;;;;2.78;0.80;;;22.50;39.60;;;;;;5054557;28;20040;-60
2022/01/04 11:44:43;;;;;;;1.33;1.00;;;22.60;39.70;;;;;;5036716;28;20427;-55
2022/01/04 11:47:23;;;;;;;2.00;1.42;;;22.60;39.80;;;;;;5052591;28;20037;-53
2022/01/04 11:50:06;;;;;;;1.45;0.80;;;22.70;39.90;;;;;;5055057;28;20033;-55
2022/01/04 11:52:52;;;;;;;3.33;1.10;;;22.70;39.80;;;;;;5054473;28;20044;-60
2022/01/04 11:55:36;;;;;;;3.35;0.98;;;22.70;40.40;;;;;;5053251;28;20052;-55
2022/01/04 11:58:08;;;;;;;2.92;1.00;;;22.80;39.90;;;;;;5054082;28;20033;-53
2022/01/04 12:00:40;;;;;;;0.90;0.80;;;22.80;39.90;;;;;;5053526;28;20341;-52
2022/01/04 12:03:13;;;;;;;2.25;0.70;;;22.90;39.70;;;;;;5052988;28;20025;-53
2022/01/04 12:05:57;;;;;;;0.90;0.77;;;22.90;39.60;;;;;;5051150;28;20021;-54
2022/01/04 12:08:37;;;;;;;1.80;1.02;;;23.00;39.50;;;;;;5053170;28;20453;-57
2022/01/04 12:11:03;;;;;;;1.40;0.88;;;23.00;39.50;;;;;;5052393;28;20029;-55
2022/01/04 12:13:54;;;;;;;2.33;1.05;;;23.00;39.50;;;;;;5051551;28;20025;-56
2022/01/04 12:17:09;;;;;;;0.90;0.70;;;23.00;39.40;;;;;;5052847;28;20025;-55
2022/01/04 12:19:47;;;;;;;0.98;0.80;;;23.00;39.40;;;;;;5029353;28;20356;-54
2022/01/04 12:22:29;;;;;;;3.00;0.95;;;23.00;39.50;;;;;;5050217;28;20074;-58
2022/01/04 12:25:05;;;;;;;2.22;0.90;;;23.10;39.50;;;;;;5049787;28;20034;-53
2022/01/04 12:27:31;;;;;;;1.40;0.80;;;23.00;39.50;;;;;;5038528;28;20068;-55
2022/01/04 12:30:32;;;;;;;1.30;0.70;;;23.00;39.40;;;;;;5037874;28;20017;-51
2022/01/04 12:33:34;;;;;;;0.75;0.63;;;23.10;39.50;;;;;;4983519;28;20035;-52
2022/01/04 12:35:59;;;;;;;1.85;0.70;;;23.10;39.50;;;;;;5042404;28;20033;-55
2022/01/04 12:38:25;;;;;;;1.42;0.82;;;23.20;39.50;;;;;;5045519;28;20124;-52
2022/01/04 12:40:52;;;;;;;1.23;0.88;;;23.20;39.40;;;;;;5052244;28;20037;-54
2022/01/04 12:43:18;;;;;;;1.35;0.85;;;23.20;39.40;;;;;;5052150;28;20405;-57
2022/01/04 12:45:56;;;;;;;0.98;0.70;;;23.20;39.40;;;;;;5051690;28;20115;-56
2022/01/04 12:48:45;;;;;;;2.05;0.90;;;23.20;39.30;;;;;;5051567;28;20345;-56
2022/01/04 12:51:29;;;;;;;1.30;0.73;;;23.30;39.30;;;;;;5052367;28;20032;-53
2022/01/04 12:53:57;;;;;;;1.92;0.98;;;23.30;39.30;;;;;;5048390;28;20082;-51
2022/01/04 12:56:24;;;;;;;6.75;0.90;;;23.40;39.50;;;;;;5043262;28;20347;-53
2022/01/04 12:58:51;;;;;;;2.58;1.13;;;23.50;39.50;;;;;;5052404;28;20056;-54
2022/01/04 13:01:29;;;;;;;3.20;0.80;;;23.50;39.40;;;;;;5044453;28;20039;-50
2022/01/04 13:03:57;;;;;;;1.48;0.90;;;23.60;39.20;;;;;;5051856;28;20035;-52
2022/01/04 13:06:23;;;;;;;2.80;1.00;;;23.60;39.00;;;;;;5051298;28;20052;-57
2022/01/04 13:08:52;;;;;;;1.92;0.88;;;23.60;38.90;;;;;;5051946;28;20021;-52